createdAt,value
2023-11-18T00:01:47.182Z,101293.31
2023-11-18T00:04:17.400Z,101288.16
2023-11-18T00:06:48.452Z,101292.63
2023-11-18T00:09:16.051Z,101296.00
2023-11-18T00:11:45.851Z,101291.59
2023-11-18T00:14:12.974Z,101288.16
2023-11-18T00:16:40.391Z,101294.22
2023-11-18T00:19:07.480Z,101307.31
2023-11-18T00:21:34.411Z,101308.13
2023-11-18T00:24:01.270Z,101315.13
2023-11-18T00:26:28.178Z,101322.22
2023-11-18T00:29:00.791Z,101310.75
2023-11-18T00:31:28.961Z,101323.97
2023-11-18T00:33:55.989Z,101317.91
2023-11-18T00:36:22.937Z,101322.22
2023-11-18T00:38:50.568Z,101327.50
2023-11-18T00:41:18.919Z,101331.06
2023-11-18T00:43:46.032Z,101334.69
2023-11-18T00:46:12.961Z,101336.34
2023-11-18T00:48:40.099Z,101337.13
2023-11-18T00:51:10.100Z,101338.03
2023-11-18T00:53:36.990Z,101351.25
2023-11-18T00:56:09.383Z,101344.25
2023-11-18T00:58:40.544Z,101353.94
2023-11-18T01:01:08.136Z,101347.75
2023-11-18T01:03:35.647Z,101358.16
2023-11-18T01:06:02.570Z,101366.03
2023-11-18T01:08:29.451Z,101359.09
2023-11-18T01:10:56.254Z,101379.34
2023-11-18T01:13:23.272Z,101369.78
2023-11-18T01:15:50.893Z,101378.41
2023-11-18T01:18:19.206Z,101380.00
2023-11-18T01:20:46.177Z,101381.75
2023-11-18T01:23:13.146Z,101385.38
2023-11-18T01:25:41.456Z,101387.94
2023-11-18T01:28:08.692Z,101390.63
2023-11-18T01:30:35.462Z,101381.03
2023-11-18T01:33:02.461Z,101383.72
2023-11-18T01:35:29.820Z,101392.44
2023-11-18T01:37:56.725Z,101382.78
2023-11-18T01:40:23.912Z,101390.75
2023-11-18T01:42:50.930Z,101392.69
2023-11-18T01:45:18.115Z,101396.00
2023-11-18T01:47:46.895Z,101389.19
2023-11-18T01:50:15.957Z,101383.84
2023-11-18T01:52:46.633Z,101382.09
2023-11-18T01:55:14.717Z,101383.03
2023-11-18T01:57:45.522Z,101389.31
2023-11-18T02:00:15.799Z,101398.03
2023-11-18T02:02:45.196Z,101393.81
2023-11-18T02:05:14.332Z,101402.56
2023-11-18T02:07:41.668Z,101396.56
2023-11-18T02:10:10.692Z,101396.44
2023-11-18T02:12:45.921Z,101402.59
2023-11-18T02:15:14.408Z,101400.97
2023-11-18T02:17:44.173Z,101403.47
2023-11-18T02:20:17.618Z,101403.47
2023-11-18T02:22:45.138Z,101412.19
2023-11-18T02:25:16.983Z,101413.97
2023-11-18T02:27:44.417Z,101421.94
2023-11-18T02:30:15.786Z,101425.41
2023-11-18T02:33:06.877Z,101427.09
2023-11-18T02:35:38.686Z,101429.78
2023-11-18T02:38:11.868Z,101429.63
2023-11-18T02:40:45.327Z,101429.69
2023-11-18T02:43:12.631Z,101428.72
2023-11-18T02:45:39.892Z,101428.69
2023-11-18T02:48:08.180Z,101433.06
2023-11-18T02:50:39.575Z,101435.78
2023-11-18T02:53:06.910Z,101429.59
2023-11-18T02:55:33.983Z,101437.56
2023-11-18T02:58:06.621Z,101426.16
2023-11-18T03:00:37.152Z,101427.75
2023-11-18T03:03:04.758Z,101426.84
2023-11-18T03:05:32.288Z,101432.13
2023-11-18T03:07:59.860Z,101427.00
2023-11-18T03:10:27.613Z,101432.13
2023-11-18T03:12:55.363Z,101427.78
2023-11-18T03:15:24.173Z,101439.03
2023-11-18T03:17:52.505Z,101436.59
2023-11-18T03:20:21.301Z,101432.03
2023-11-18T03:22:48.791Z,101434.81
2023-11-18T03:25:16.100Z,101440.03
2023-11-18T03:27:43.452Z,101433.78
2023-11-18T03:30:10.899Z,101432.88
2023-11-18T03:32:39.815Z,101432.13
2023-11-18T03:35:11.366Z,101431.19
2023-11-18T03:37:43.268Z,101435.59
2023-11-18T03:40:13.277Z,101434.75
2023-11-18T03:42:41.319Z,101433.94
2023-11-18T03:45:13.161Z,101441.81
2023-11-18T03:47:40.324Z,101441.81
2023-11-18T03:50:10.337Z,101447.91
2023-11-18T03:52:39.477Z,101442.56
2023-11-18T03:55:07.198Z,101453.88
2023-11-18T03:57:34.137Z,101453.88
2023-11-18T04:00:01.436Z,101452.19
2023-11-18T04:02:28.531Z,101445.19
2023-11-18T04:04:55.605Z,101456.53
2023-11-18T04:07:23.138Z,101454.81
2023-11-18T04:09:50.011Z,101453.94
2023-11-18T04:12:17.727Z,101448.56
2023-11-18T04:14:44.685Z,101445.94
2023-11-18T04:17:11.721Z,101455.59
2023-11-18T04:19:40.446Z,101457.31
2023-11-18T04:22:07.365Z,101453.75
2023-11-18T04:24:36.456Z,101462.59
2023-11-18T04:27:04.003Z,101466.34
2023-11-18T04:29:31.477Z,101465.34
2023-11-18T04:31:58.581Z,101462.72
2023-11-18T04:34:26.326Z,101468.00
2023-11-18T04:36:53.435Z,101464.59
2023-11-18T04:39:21.954Z,101465.41
2023-11-18T04:41:48.868Z,101471.66
2023-11-18T04:44:17.884Z,101472.47
2023-11-18T04:46:46.089Z,101482.19
2023-11-18T04:49:13.328Z,101477.03
2023-11-18T04:51:40.310Z,101478.75
2023-11-18T04:54:09.326Z,101478.66
2023-11-18T04:56:39.469Z,101479.69
2023-11-18T04:59:08.001Z,101484.03
2023-11-18T05:01:35.009Z,101484.09
2023-11-18T05:04:02.094Z,101486.75
2023-11-18T05:06:29.051Z,101493.66
2023-11-18T05:08:58.629Z,101492.78
2023-11-18T05:11:25.516Z,101491.09
2023-11-18T05:13:52.455Z,101489.31
2023-11-18T05:16:19.434Z,101491.00
2023-11-18T05:18:46.391Z,101483.94
2023-11-18T05:21:13.322Z,101478.53
2023-11-18T05:23:40.436Z,101483.00
2023-11-18T05:26:07.869Z,101480.47
2023-11-18T05:28:35.425Z,101471.66
2023-11-18T05:31:06.859Z,101474.25
2023-11-18T05:33:35.829Z,101479.69
2023-11-18T05:36:06.674Z,101477.81
2023-11-18T05:38:36.588Z,101483.03
2023-11-18T05:41:08.082Z,101478.81
2023-11-18T05:43:41.447Z,101480.56
2023-11-18T05:46:25.848Z,101478.78
2023-11-18T05:48:57.224Z,101475.38
2023-11-18T05:51:25.912Z,101486.81
2023-11-18T05:53:53.817Z,101493.72
2023-11-18T05:56:24.499Z,101484.09
2023-11-18T05:58:55.152Z,101487.88
2023-11-18T06:01:22.785Z,101489.66
2023-11-18T06:03:50.287Z,101498.47
2023-11-18T06:06:21.396Z,101491.44
2023-11-18T06:08:55.080Z,101497.44
2023-11-18T06:11:22.403Z,101506.06
2023-11-18T06:13:52.099Z,101502.59
2023-11-18T06:16:23.470Z,101500.06
2023-11-18T06:18:54.601Z,101502.22
2023-11-18T06:21:28.418Z,101494.75
2023-11-18T06:23:56.698Z,101499.97
2023-11-18T06:26:24.599Z,101501.69
2023-11-18T06:28:51.564Z,101504.47
2023-11-18T06:31:18.799Z,101508.38
2023-11-18T06:33:50.564Z,101515.28
2023-11-18T06:36:28.106Z,101519.00
2023-11-18T06:38:55.407Z,101514.78
2023-11-18T06:41:34.886Z,101506.09
2023-11-18T06:44:10.269Z,101520.03
2023-11-18T06:46:38.193Z,101527.22
2023-11-18T06:49:05.907Z,101528.22
2023-11-18T06:51:37.944Z,101534.63
2023-11-18T06:54:12.972Z,101553.25
2023-11-18T06:56:46.300Z,101535.75
2023-11-18T06:59:15.136Z,101559.50
2023-11-18T07:01:47.087Z,101559.75
2023-11-18T07:04:16.483Z,101559.03
2023-11-18T07:06:45.159Z,101550.00
2023-11-18T07:09:19.810Z,101551.97
2023-11-18T07:11:48.478Z,101556.34
2023-11-18T07:14:19.088Z,101558.19
2023-11-18T07:16:46.723Z,101562.53
2023-11-18T07:19:22.203Z,101565.19
2023-11-18T07:21:50.845Z,101568.66
2023-11-18T07:24:18.765Z,101569.34
2023-11-18T07:26:46.764Z,101571.13
2023-11-18T07:29:18.623Z,101574.44
2023-11-18T07:31:47.139Z,101576.34
2023-11-18T07:34:16.452Z,101573.91
2023-11-18T07:36:47.483Z,101579.16
2023-11-18T07:39:19.428Z,101585.97
2023-11-18T07:41:49.147Z,101588.03
2023-11-18T07:44:18.949Z,101592.50
2023-11-18T07:46:46.189Z,101595.13
2023-11-18T07:49:18.186Z,101597.59
2023-11-18T07:51:45.577Z,101585.38
2023-11-18T07:54:16.600Z,101586.31
2023-11-18T07:56:44.408Z,101606.53
2023-11-18T07:59:11.615Z,101598.50
2023-11-18T08:01:42.444Z,101608.09
2023-11-18T08:04:09.467Z,101603.66
2023-11-18T08:06:38.440Z,101613.09
2023-11-18T08:09:08.012Z,101610.47
2023-11-18T08:11:35.290Z,101623.47
2023-11-18T08:14:04.349Z,101622.72
2023-11-18T08:16:31.816Z,101620.88
2023-11-18T08:18:59.333Z,101615.63
2023-11-18T08:21:26.186Z,101615.50
2023-11-18T08:23:54.181Z,101617.88
2023-11-18T08:26:21.590Z,101622.84
2023-11-18T08:28:48.621Z,101613.03
2023-11-18T08:31:19.883Z,101619.06
2023-11-18T08:33:47.902Z,101623.41
2023-11-18T08:36:14.892Z,101617.16
2023-11-18T08:38:45.691Z,101620.72
2023-11-18T08:41:13.745Z,101619.97
2023-11-18T08:43:48.330Z,101622.50
2023-11-18T08:46:15.627Z,101613.75
2023-11-18T08:48:42.515Z,101618.72
2023-11-18T08:51:11.613Z,101620.56
2023-11-18T08:53:46.140Z,101611.66
2023-11-18T08:56:15.573Z,101621.00
2023-11-18T08:58:46.794Z,101613.84
2023-11-18T09:01:17.067Z,101614.53
2023-11-18T09:03:45.115Z,101613.31
2023-11-18T09:06:27.446Z,101605.25
2023-11-18T09:08:57.783Z,101608.72
2023-11-18T09:11:28.674Z,101618.56
2023-11-18T09:13:58.873Z,101621.06
2023-11-18T09:16:34.646Z,101626.31
2023-11-18T09:19:04.460Z,101631.53
2023-11-18T09:21:36.890Z,101639.44
2023-11-18T09:24:06.881Z,101634.13
2023-11-18T09:26:35.397Z,101644.38
2023-11-18T09:29:03.772Z,101637.38
2023-11-18T09:31:33.059Z,101647.34
2023-11-18T09:34:00.043Z,101650.00
2023-11-18T09:36:31.666Z,101639.31
2023-11-18T09:38:58.641Z,101643.63
2023-11-18T09:41:32.546Z,101628.47
2023-11-18T09:44:04.019Z,101637.25
2023-11-18T09:46:34.725Z,101628.41
2023-11-18T09:49:18.800Z,101632.69
2023-11-18T09:51:50.298Z,101630.00
2023-11-18T09:55:00.159Z,101636.03
2023-11-18T09:57:42.602Z,101631.44
2023-11-18T10:00:22.080Z,101634.81
2023-11-18T10:02:53.315Z,101642.75
2023-11-18T10:05:28.709Z,101642.78
2023-11-18T10:07:56.023Z,101650.00
2023-11-18T10:10:23.448Z,101650.94
2023-11-18T10:13:02.197Z,101640.50
2023-11-18T10:15:29.633Z,101648.56
2023-11-18T10:17:58.853Z,101647.72
2023-11-18T10:20:43.292Z,101651.22
2023-11-18T10:23:14.204Z,101656.34
2023-11-18T10:25:51.477Z,101650.25
2023-11-18T10:28:35.410Z,101644.75
2023-11-18T10:31:07.077Z,101639.91
2023-11-18T10:33:45.591Z,101635.00
2023-11-18T10:36:24.564Z,101640.13
2023-11-18T10:38:53.113Z,101635.59
2023-11-18T10:41:20.762Z,101643.34
2023-11-18T10:43:51.758Z,101627.59
2023-11-18T10:46:18.730Z,101622.31
2023-11-18T10:48:49.777Z,101626.31
2023-11-18T10:51:21.128Z,101626.03
2023-11-18T10:54:00.287Z,101626.94
2023-11-18T10:56:30.457Z,101622.91
2023-11-18T10:59:01.074Z,101637.34
2023-11-18T11:01:44.368Z,101632.09
2023-11-18T11:04:18.456Z,101629.06
2023-11-18T11:06:58.709Z,101628.13
2023-11-18T11:09:29.360Z,101629.38
2023-11-18T11:12:07.488Z,101634.00
2023-11-18T11:14:38.489Z,101637.25
2023-11-18T11:17:12.758Z,101629.63
2023-11-18T11:19:56.968Z,101640.47
2023-11-18T11:22:33.479Z,101645.19
2023-11-18T11:25:24.040Z,101641.00
2023-11-18T11:28:03.603Z,101637.63
2023-11-18T11:30:41.408Z,101618.66
2023-11-18T11:33:18.699Z,101633.44
2023-11-18T11:35:50.333Z,101629.53
2023-11-18T11:38:20.291Z,101616.69
2023-11-18T11:40:52.078Z,101609.22
2023-11-18T11:43:22.922Z,101620.09
2023-11-18T11:45:53.409Z,101621.09
2023-11-18T11:48:27.898Z,101620.31
2023-11-18T11:51:03.128Z,101619.72
2023-11-18T11:53:34.252Z,101611.22
2023-11-18T11:56:15.562Z,101605.88
2023-11-18T11:58:48.542Z,101606.56
2023-11-18T12:01:39.041Z,101599.53
2023-11-18T12:04:12.095Z,101594.81
2023-11-18T12:06:45.669Z,101598.91
2023-11-18T12:09:14.015Z,101589.31
2023-11-18T12:11:43.593Z,101587.56
2023-11-18T12:14:32.510Z,101589.53
2023-11-18T12:17:10.379Z,101579.03
2023-11-18T12:19:48.691Z,101580.38
2023-11-18T12:22:25.834Z,101573.28
2023-11-18T12:25:07.888Z,101574.53
2023-11-18T12:27:40.901Z,101570.22
2023-11-18T12:30:17.074Z,101563.25
2023-11-18T12:33:10.145Z,101570.50
2023-11-18T12:35:52.672Z,101572.25
2023-11-18T12:38:47.550Z,101564.22
2023-11-18T12:41:38.860Z,101555.63
2023-11-18T12:44:26.357Z,101564.44
2023-11-18T12:47:11.201Z,101558.59
2023-11-18T12:49:42.419Z,101560.50
2023-11-18T12:52:11.368Z,101559.59
2023-11-18T12:54:39.200Z,101550.50
2023-11-18T12:57:08.366Z,101559.97
2023-11-18T12:59:35.936Z,101565.44
2023-11-18T13:02:21.379Z,101567.19
2023-11-18T13:04:48.925Z,101563.81
2023-11-18T13:07:19.972Z,101553.19
2023-11-18T13:09:47.381Z,101548.59
2023-11-18T13:12:25.166Z,101551.97
2023-11-18T13:14:53.025Z,101545.78
2023-11-18T13:17:20.045Z,101550.81
2023-11-18T13:19:49.109Z,101552.03
2023-11-18T13:22:16.370Z,101557.59
2023-11-18T13:24:46.804Z,101552.47
2023-11-18T13:27:15.370Z,101549.19
2023-11-18T13:29:46.834Z,101543.28
2023-11-18T13:32:14.103Z,101540.59
2023-11-18T13:34:43.678Z,101549.25
2023-11-18T13:37:16.707Z,101539.56
2023-11-18T13:39:48.578Z,101547.38
2023-11-18T13:42:29.473Z,101551.06
2023-11-18T13:45:19.265Z,101552.78
2023-11-18T13:47:54.137Z,101544.59
2023-11-18T13:50:21.175Z,101548.88
2023-11-18T13:52:49.522Z,101549.50
2023-11-18T13:55:33.311Z,101539.56
2023-11-18T13:58:00.465Z,101533.34
2023-11-18T14:00:32.621Z,101530.56
2023-11-18T14:03:01.264Z,101528.06
2023-11-18T14:05:28.580Z,101535.31
2023-11-18T14:08:11.297Z,101535.47
2023-11-18T14:10:42.715Z,101530.03
2023-11-18T14:13:14.635Z,101528.28
2023-11-18T14:15:44.044Z,101523.13
2023-11-18T14:18:13.443Z,101511.78
2023-11-18T14:20:40.663Z,101516.22
2023-11-18T14:23:07.636Z,101523.06
2023-11-18T14:25:37.761Z,101526.47
2023-11-18T14:28:05.257Z,101530.03
2023-11-18T14:30:32.245Z,101535.47
2023-11-18T14:32:59.165Z,101534.78
2023-11-18T14:35:28.533Z,101529.84
2023-11-18T14:37:57.666Z,101521.22
2023-11-18T14:40:29.346Z,101529.22
2023-11-18T14:42:57.122Z,101520.50
2023-11-18T14:45:26.253Z,101527.84
2023-11-18T14:47:57.722Z,101522.72
2023-11-18T14:50:27.128Z,101515.78
2023-11-18T14:53:00.235Z,101516.75
2023-11-18T14:55:31.232Z,101508.97
2023-11-18T14:57:58.406Z,101492.31
2023-11-18T15:00:28.634Z,101496.78
2023-11-18T15:03:00.546Z,101486.38
2023-11-18T15:05:29.061Z,101487.38
2023-11-18T15:07:59.255Z,101499.69
2023-11-18T15:10:27.290Z,101488.38
2023-11-18T15:12:58.598Z,101490.25
2023-11-18T15:15:33.476Z,101469.22
2023-11-18T15:18:06.153Z,101465.81
2023-11-18T15:20:36.675Z,101468.44
2023-11-18T15:23:04.186Z,101473.03
2023-11-18T15:25:31.088Z,101473.94
2023-11-18T15:28:01.877Z,101468.69
2023-11-18T15:30:28.955Z,101478.72
2023-11-18T15:32:56.309Z,101486.50
2023-11-18T15:35:23.878Z,101487.38
2023-11-18T15:37:52.487Z,101484.56
2023-11-18T15:40:27.003Z,101492.47
2023-11-18T15:42:55.042Z,101486.38
2023-11-18T15:45:26.042Z,101474.16
2023-11-18T15:47:53.621Z,101467.16
2023-11-18T15:50:22.187Z,101455.75
2023-11-18T15:52:50.434Z,101448.81
2023-11-18T15:55:18.638Z,101440.13
2023-11-18T15:57:53.975Z,101455.06
2023-11-18T16:00:26.308Z,101443.59
2023-11-18T16:03:03.023Z,101456.88
2023-11-18T16:05:36.106Z,101463.97
2023-11-18T16:08:09.061Z,101463.22
2023-11-18T16:10:46.744Z,101465.13
2023-11-18T16:13:17.278Z,101463.13
2023-11-18T16:15:44.227Z,101458.59
2023-11-18T16:18:11.328Z,101444.53
2023-11-18T16:20:38.614Z,101435.75
2023-11-18T16:23:06.342Z,101434.00
2023-11-18T16:25:36.671Z,101428.69
2023-11-18T16:28:04.797Z,101420.72
2023-11-18T16:30:34.866Z,101411.09
2023-11-18T16:33:09.200Z,101415.56
2023-11-18T16:35:37.289Z,101405.97
2023-11-18T16:38:04.386Z,101400.81
2023-11-18T16:40:32.747Z,101403.59
2023-11-18T16:43:01.372Z,101402.66
2023-11-18T16:45:28.649Z,101406.19
2023-11-18T16:47:56.219Z,101406.25
2023-11-18T16:50:25.155Z,101411.59
2023-11-18T16:52:53.507Z,101405.38
2023-11-18T16:55:22.916Z,101395.69
2023-11-18T16:57:53.722Z,101389.72
2023-11-18T17:00:25.663Z,101380.16
2023-11-18T17:02:59.626Z,101382.69
2023-11-18T17:05:32.750Z,101381.94
2023-11-18T17:08:01.620Z,101369.88
2023-11-18T17:10:29.332Z,101368.09
2023-11-18T17:12:58.349Z,101374.44
2023-11-18T17:15:28.007Z,101363.81
2023-11-18T17:18:05.394Z,101366.56
2023-11-18T17:20:32.534Z,101366.56
2023-11-18T17:23:01.633Z,101355.06
2023-11-18T17:25:28.574Z,101357.66
2023-11-18T17:27:58.030Z,101357.66
2023-11-18T17:30:25.538Z,101356.00
2023-11-18T17:32:55.455Z,101349.78
2023-11-18T17:35:23.140Z,101351.66
2023-11-18T17:37:50.619Z,101357.84
2023-11-18T17:40:17.755Z,101348.19
2023-11-18T17:42:49.187Z,101347.31
2023-11-18T17:45:18.790Z,101336.91
2023-11-18T17:47:46.198Z,101343.81
2023-11-18T17:50:15.752Z,101334.00
2023-11-18T17:52:47.995Z,101325.22
2023-11-18T17:55:16.507Z,101322.75
2023-11-18T17:57:46.777Z,101321.94
2023-11-18T18:00:20.613Z,101329.75
2023-11-18T18:02:48.180Z,101306.94
2023-11-18T18:05:15.413Z,101303.53
2023-11-18T18:07:42.825Z,101317.47
2023-11-18T18:10:14.537Z,101320.22
2023-11-18T18:12:48.199Z,101322.03
2023-11-18T18:15:15.398Z,101323.69
2023-11-18T18:17:42.466Z,101311.41
2023-11-18T18:20:14.648Z,101303.53
2023-11-18T18:22:44.203Z,101295.53
2023-11-18T18:25:11.307Z,101292.09
2023-11-18T18:27:39.942Z,101289.47
2023-11-18T18:30:07.549Z,101304.41
2023-11-18T18:32:38.070Z,101307.09
2023-11-18T18:35:07.202Z,101306.25
2023-11-18T18:37:44.378Z,101289.56
2023-11-18T18:40:13.210Z,101281.56
2023-11-18T18:42:44.380Z,101289.72
2023-11-18T18:45:12.847Z,101285.22
2023-11-18T18:47:42.895Z,101289.53
2023-11-18T18:50:10.211Z,101293.09
2023-11-18T18:52:37.423Z,101288.78
2023-11-18T18:55:04.931Z,101291.41
2023-11-18T18:57:32.771Z,101285.25
2023-11-18T18:59:59.672Z,101291.34
2023-11-18T19:02:27.343Z,101276.41
2023-11-18T19:04:54.609Z,101281.69
2023-11-18T19:07:22.528Z,101289.53
2023-11-18T19:09:50.347Z,101280.00
2023-11-18T19:12:20.268Z,101261.44
2023-11-18T19:14:47.427Z,101253.34
2023-11-18T19:17:15.139Z,101250.78
2023-11-18T19:19:45.142Z,101250.81
2023-11-18T19:22:12.015Z,101243.81
2023-11-18T19:24:40.005Z,101246.38
2023-11-18T19:27:15.028Z,101242.03
2023-11-18T19:29:45.059Z,101242.94
2023-11-18T19:32:12.358Z,101234.97
2023-11-18T19:34:42.098Z,101239.44
2023-11-18T19:37:11.252Z,101234.09
2023-11-18T19:39:41.611Z,101226.19
2023-11-18T19:42:08.978Z,101228.94
2023-11-18T19:44:35.944Z,101216.59
2023-11-18T19:47:02.889Z,101221.81
2023-11-18T19:49:32.960Z,101212.13
2023-11-18T19:52:03.265Z,101203.38
2023-11-18T19:54:30.256Z,101198.06
2023-11-18T19:56:57.155Z,101194.53
2023-11-18T19:59:23.957Z,101195.38
2023-11-18T20:01:56.257Z,101183.72
2023-11-18T20:04:23.552Z,101187.41
2023-11-18T20:06:50.616Z,101174.38
2023-11-18T20:09:18.484Z,101170.75
2023-11-18T20:11:54.149Z,101183.84
2023-11-18T20:14:24.889Z,101177.78
2023-11-18T20:16:52.246Z,101173.44
2023-11-18T20:19:24.276Z,101181.22
2023-11-18T20:21:51.272Z,101174.16
2023-11-18T20:24:18.417Z,101167.94
2023-11-18T20:26:45.360Z,101165.25
2023-11-18T20:29:14.229Z,101160.16
2023-11-18T20:31:41.227Z,101154.88
2023-11-18T20:34:12.685Z,101161.81
2023-11-18T20:36:44.950Z,101147.81
2023-11-18T20:39:19.210Z,101139.03
2023-11-18T20:41:48.500Z,101129.63
2023-11-18T20:44:15.845Z,101134.59
2023-11-18T20:46:42.874Z,101124.84
2023-11-18T20:49:09.801Z,101108.16
2023-11-18T20:51:37.407Z,101115.16
2023-11-18T20:54:06.093Z,101107.50
2023-11-18T20:56:35.673Z,101102.13
2023-11-18T20:59:02.813Z,101100.38
2023-11-18T21:01:30.557Z,101105.88
2023-11-18T21:03:58.715Z,101122.47
2023-11-18T21:06:26.048Z,101119.75
2023-11-18T21:08:53.029Z,101107.38
2023-11-18T21:11:22.449Z,101095.28
2023-11-18T21:13:49.887Z,101097.91
2023-11-18T21:16:19.797Z,101088.41
2023-11-18T21:18:46.817Z,101087.56
2023-11-18T21:21:21.051Z,101083.84
2023-11-18T21:23:49.323Z,101082.00
2023-11-18T21:26:16.402Z,101068.97
2023-11-18T21:28:43.441Z,101047.94
2023-11-18T21:31:10.299Z,101023.38
2023-11-18T21:33:38.888Z,101025.22
2023-11-18T21:36:06.290Z,101021.09
2023-11-18T21:38:36.368Z,101022.78
2023-11-18T21:41:03.611Z,101006.03
2023-11-18T21:43:34.102Z,100994.72
2023-11-18T21:46:01.209Z,100998.00
2023-11-18T21:48:30.374Z,100987.66
2023-11-18T21:51:00.267Z,100982.63
2023-11-18T21:53:30.230Z,100970.84
2023-11-18T21:56:01.425Z,100957.56
2023-11-18T21:58:28.534Z,100961.28
2023-11-18T22:01:02.800Z,100956.72
2023-11-18T22:03:30.488Z,100968.81
2023-11-18T22:05:57.404Z,100954.09
2023-11-18T22:08:24.350Z,100952.41
2023-11-18T22:10:52.011Z,100944.28
2023-11-18T22:13:18.977Z,100954.03
2023-11-18T22:15:46.073Z,100948.50
2023-11-18T22:18:13.437Z,100951.03
2023-11-18T22:20:41.024Z,100948.78
2023-11-18T22:23:08.020Z,100949.53
2023-11-18T22:25:34.993Z,100942.44
2023-11-18T22:28:06.185Z,100936.97
2023-11-18T22:30:33.850Z,100943.94
2023-11-18T22:33:01.529Z,100931.75
2023-11-18T22:35:28.926Z,100930.72
2023-11-18T22:37:57.919Z,100923.91
2023-11-18T22:40:27.495Z,100924.63
2023-11-18T22:42:54.714Z,100923.22
2023-11-18T22:45:21.911Z,100928.09
2023-11-18T22:47:52.578Z,100921.03
2023-11-18T22:50:25.208Z,100916.53
2023-11-18T22:52:54.754Z,100917.38
2023-11-18T22:55:23.462Z,100905.22
2023-11-18T22:57:50.775Z,100893.88
2023-11-18T23:00:33.426Z,100892.97
2023-11-18T23:03:01.242Z,100878.97
2023-11-18T23:05:28.312Z,100873.94
2023-11-18T23:07:58.179Z,100875.56
2023-11-18T23:10:28.062Z,100872.94
2023-11-18T23:12:57.441Z,100863.03
2023-11-18T23:15:25.979Z,100851.63
2023-11-18T23:17:53.499Z,100836.91
2023-11-18T23:20:22.772Z,100824.84
2023-11-18T23:22:54.928Z,100822.41
2023-11-18T23:25:24.254Z,100823.31
2023-11-18T23:28:00.984Z,100807.78
2023-11-18T23:30:28.751Z,100800.66
2023-11-18T23:32:55.800Z,100803.22
2023-11-18T23:35:22.972Z,100791.72
2023-11-18T23:37:50.395Z,100778.00
2023-11-18T23:40:20.585Z,100766.00
2023-11-18T23:42:49.428Z,100749.97
2023-11-18T23:45:22.243Z,100748.22
2023-11-18T23:47:52.517Z,100749.91
2023-11-18T23:50:21.087Z,100748.53
2023-11-18T23:52:48.268Z,100744.41
2023-11-18T23:55:17.998Z,100750.94
2023-11-18T23:57:45.259Z,100743.09
